Terminal Aerodrome Forecast
Issued by NWS Sioux Falls, SD

Home | Current Version | Previous Version | Text Only | Print | Product List | Glossary Off
Versions: 1 2 3 4 5 6 7 8 9 10 11 12 13 14 15

000
FTUS43 KFSD 222328
TAFSUX
TAF
KSUX 222328Z 2300/2324 32010G18KT P6SM BKN110
     FM231400 32012KT P6SM BKN030
     FM231600 33014G21KT P6SM VCSH BKN025
     FM231800 33014G21KT P6SM OVC035
     FM232100 34015G23KT P6SM BKN040=

USA.gov is the U.S. government's official web portal to all federal, state and local government web resources and services.